Time;durP1;ratioP1;P1;durP2;ratioP2;P2;SDS_P1;SDS_P2;PMS_P1;PMS_P2;Temp;Humidity;BMP_temperature;BMP_pressure;BME280_temperature;BME280_humidity;BME280_pressure;Samples;Min_cycle;Max_cycle;Signal;HPM_P1;HPM_P2
2022/03/28 00:01:27;;;;;;;;;;;7.30;99.90;;;;;;5080606;28;20067;-60
2022/03/28 00:03:53;;;;;;;;;;;7.30;99.90;;;;;;5083015;28;20402;-60
2022/03/28 00:06:18;;;;;;;;;;;7.30;99.90;;;;;;5095115;28;19924;-60
2022/03/28 00:08:44;;;;;;;;;;;7.30;99.90;;;;;;5094571;28;19928;-60
2022/03/28 00:11:10;;;;;;;;;;;7.20;99.90;;;;;;5093981;28;19924;-60
2022/03/28 00:13:36;;;;;;;;;;;7.20;99.90;;;;;;5094643;28;19924;-60
2022/03/28 00:16:02;;;;;;;;;;;7.20;99.90;;;;;;5094409;28;20374;-60
2022/03/28 00:18:27;;;;;;;;;;;7.10;99.90;;;;;;5094052;28;20402;-60
2022/03/28 00:20:54;;;;;;;;;;;7.10;99.90;;;;;;5094389;28;19931;-60
2022/03/28 00:23:20;;;;;;;;;;;7.20;99.90;;;;;;5094326;28;20389;-60
2022/03/28 00:25:46;;;;;;;;;;;7.00;99.90;;;;;;5094094;28;19925;-60
2022/03/28 00:28:12;;;;;;;;;;;7.00;99.90;;;;;;5081925;28;19925;-60
2022/03/28 00:30:38;;;;;;;;;;;6.90;99.90;;;;;;5089911;28;20343;-60
2022/03/28 00:33:04;;;;;;;;;;;6.90;99.90;;;;;;5093921;28;19928;-60
2022/03/28 00:35:30;;;;;;;;;;;6.90;99.90;;;;;;5087889;28;19931;-60
2022/03/28 00:37:56;;;;;;;;;;;6.90;99.90;;;;;;5110241;28;20056;-60
2022/03/28 00:40:22;;;;;;;;;;;6.80;99.90;;;;;;5095034;28;19924;-60
2022/03/28 00:42:48;;;;;;;;;;;6.90;99.90;;;;;;5094178;28;19928;-60
2022/03/28 00:45:14;;;;;;;;;;;6.90;99.90;;;;;;5093453;28;19934;-60
2022/03/28 00:47:40;;;;;;;;;;;7.10;99.90;;;;;;5093368;28;19924;-60
2022/03/28 00:50:06;;;;;;;;;;;7.10;99.90;;;;;;5094328;28;19931;-60
2022/03/28 00:52:32;;;;;;;;;;;7.10;99.90;;;;;;5093829;28;20011;-60
2022/03/28 00:54:58;;;;;;;;;;;7.00;99.90;;;;;;5093500;28;20289;-60
2022/03/28 00:57:24;;;;;;;;;;;6.90;99.90;;;;;;5093854;28;19928;-60
2022/03/28 00:59:50;;;;;;;;;;;6.80;99.90;;;;;;5093280;28;19924;-60
2022/03/28 01:02:15;;;;;;;;;;;6.80;99.90;;;;;;5072754;28;19925;-60
2022/03/28 01:04:41;;;;;;;;;;;6.80;99.90;;;;;;5072596;28;20375;-60
2022/03/28 01:07:08;;;;;;;;;;;6.80;99.90;;;;;;5092309;28;19927;-60
2022/03/28 01:09:34;;;;;;;;;;;6.80;99.90;;;;;;5093551;28;20010;-60
2022/03/28 01:12:01;;;;;;;;;;;6.80;99.90;;;;;;5093704;28;19982;-60
2022/03/28 01:14:27;;;;;;;;;;;6.80;99.90;;;;;;5092000;28;19927;-60
2022/03/28 01:19:37;;;;;;;;;;;6.90;99.90;;;;;;5093702;28;20016;-60
2022/03/28 01:22:03;;;;;;;;;;;6.90;99.90;;;;;;5092339;28;20011;-60
2022/03/28 01:24:28;;;;;;;;;;;7.00;99.90;;;;;;5093246;28;19990;-60
2022/03/28 01:26:55;;;;;;;;;;;7.00;99.90;;;;;;5092964;28;19928;-60
2022/03/28 01:29:20;;;;;;;;;;;7.00;99.90;;;;;;5078018;28;19924;-60
2022/03/28 01:31:46;;;;;;;;;;;6.90;99.90;;;;;;5093214;28;19931;-60
2022/03/28 01:34:18;;;;;;;;;;;6.90;99.90;;;;;;5093575;28;19931;-60
2022/03/28 01:36:47;;;;;;;;;;;6.90;99.90;;;;;;5092294;28;19973;-60
2022/03/28 01:39:14;;;;;;;;;;;7.00;99.90;;;;;;5113619;28;19924;-60
2022/03/28 01:41:40;;;;;;;;;;;7.00;99.90;;;;;;5100344;28;19932;-60
2022/03/28 01:44:07;;;;;;;;;;;7.00;99.90;;;;;;5091095;28;19923;-60
2022/03/28 01:46:48;;;;;;;;;;;6.90;99.90;;;;;;5093481;28;20345;-60
2022/03/28 01:49:15;;;;;;;;;;;6.90;99.90;;;;;;5092165;28;20390;-60
2022/03/28 01:51:41;;;;;;;;;;;6.90;99.90;;;;;;5092765;28;19924;-60
2022/03/28 01:54:07;;;;;;;;;;;6.70;99.90;;;;;;5096772;28;19977;-60
2022/03/28 01:56:34;;;;;;;;;;;6.60;99.90;;;;;;5095719;28;19981;-60
2022/03/28 01:59:00;;;;;;;;;;;6.60;99.90;;;;;;5095317;28;19924;-60
2022/03/28 02:01:26;;;;;;;;;;;6.60;99.90;;;;;;5083781;28;19978;-60
2022/03/28 02:03:51;;;;;;;;;;;6.50;99.90;;;;;;5076361;28;19939;-59
2022/03/28 02:06:17;;;;;;;;;;;6.50;99.90;;;;;;5075185;28;19920;-60
2022/03/28 02:08:43;;;;;;;;;;;6.50;99.90;;;;;;5093884;28;19928;-59
2022/03/28 02:11:08;;;;;;;;;;;6.50;99.90;;;;;;5096266;28;19924;-60
2022/03/28 02:13:34;;;;;;;;;;;6.40;99.90;;;;;;5096826;28;19935;-59
2022/03/28 02:16:00;;;;;;;;;;;6.50;99.90;;;;;;5096943;28;19931;-60
2022/03/28 02:18:26;;;;;;;;;;;6.50;99.90;;;;;;5096537;28;19970;-60
2022/03/28 02:20:52;;;;;;;;;;;6.50;99.90;;;;;;5096511;28;20282;-60
2022/03/28 02:23:18;;;;;;;;;;;6.40;99.90;;;;;;5097147;28;19935;-60
2022/03/28 02:25:43;;;;;;;;;;;6.40;99.90;;;;;;5095730;28;19929;-60
2022/03/28 02:28:11;;;;;;;;;;;6.40;99.90;;;;;;5085590;28;19924;-59
2022/03/28 02:30:36;;;;;;;;;;;6.50;99.90;;;;;;5092939;28;19950;-60
2022/03/28 02:33:02;;;;;;;;;;;6.60;99.90;;;;;;5094677;28;20427;-60
2022/03/28 02:35:28;;;;;;;;;;;6.60;99.90;;;;;;5089221;28;19923;-60
2022/03/28 02:37:53;;;;;;;;;;;6.70;99.90;;;;;;5112499;28;20353;-60
2022/03/28 02:40:19;;;;;;;;;;;6.80;99.90;;;;;;5116310;28;19923;-60
2022/03/28 02:42:45;;;;;;;;;;;6.60;99.90;;;;;;5110549;28;19932;-60
2022/03/28 02:45:11;;;;;;;;;;;6.60;99.90;;;;;;5096784;28;20293;-60
2022/03/28 02:47:36;;;;;;;;;;;6.60;99.90;;;;;;5094360;28;20328;-60
2022/03/28 02:50:02;;;;;;;;;;;6.60;99.90;;;;;;5095951;28;19931;-60
2022/03/28 02:52:28;;;;;;;;;;;6.40;99.90;;;;;;5095121;28;19928;-60
2022/03/28 02:54:54;;;;;;;;;;;6.40;99.90;;;;;;5095388;28;19928;-60
2022/03/28 02:57:20;;;;;;;;;;;6.30;99.90;;;;;;5096382;28;20008;-60
2022/03/28 02:59:46;;;;;;;;;;;6.30;99.90;;;;;;5095564;28;20271;-60
2022/03/28 03:02:11;;;;;;;;;;;6.20;99.90;;;;;;5076264;28;20149;-60
2022/03/28 03:04:38;;;;;;;;;;;6.20;99.90;;;;;;5075229;28;19934;-60
2022/03/28 03:07:03;;;;;;;;;;;6.10;99.90;;;;;;5075006;28;19974;-60
2022/03/28 03:09:29;;;;;;;;;;;6.10;99.90;;;;;;5082983;28;19924;-60
2022/03/28 03:11:55;;;;;;;;;;;6.10;99.90;;;;;;5095643;28;20040;-60
2022/03/28 03:14:20;;;;;;;;;;;6.10;99.90;;;;;;5095305;28;20011;-60
2022/03/28 03:16:48;;;;;;;;;;;6.00;99.90;;;;;;5095403;28;21495;-60
2022/03/28 03:19:13;;;;;;;;;;;6.00;99.90;;;;;;5093626;28;20351;-60
2022/03/28 03:21:39;;;;;;;;;;;5.90;99.90;;;;;;5094737;28;19928;-60
2022/03/28 03:24:05;;;;;;;;;;;5.90;99.90;;;;;;5094428;28;19924;-60
2022/03/28 03:26:31;;;;;;;;;;;5.90;99.90;;;;;;5095035;28;19975;-60
2022/03/28 03:28:58;;;;;;;;;;;5.90;99.90;;;;;;5079834;28;19930;-60
2022/03/28 03:31:24;;;;;;;;;;;5.90;99.90;;;;;;5094599;28;19928;-60
2022/03/28 03:33:50;;;;;;;;;;;5.90;99.90;;;;;;5095441;28;19924;-60
2022/03/28 03:36:16;;;;;;;;;;;5.80;99.90;;;;;;5096296;28;19924;-60
2022/03/28 03:38:41;;;;;;;;;;;5.80;99.90;;;;;;5116076;28;20312;-60
2022/03/28 03:41:07;;;;;;;;;;;5.80;99.90;;;;;;5115689;28;19924;-60
2022/03/28 03:43:33;;;;;;;;;;;5.90;99.90;;;;;;5113106;28;19928;-60
2022/03/28 03:45:59;;;;;;;;;;;5.90;99.90;;;;;;5098879;28;19924;-60
2022/03/28 03:48:26;;;;;;;;;;;6.00;99.90;;;;;;5095218;28;19979;-60
2022/03/28 03:50:53;;;;;;;;;;;6.00;99.90;;;;;;5093943;28;19928;-60
2022/03/28 03:53:19;;;;;;;;;;;6.00;99.90;;;;;;5095089;28;19924;-60
2022/03/28 03:55:45;;;;;;;;;;;6.10;99.90;;;;;;5094548;28;19924;-60
2022/03/28 03:58:11;;;;;;;;;;;6.10;99.90;;;;;;5094693;28;19924;-59
2022/03/28 04:00:37;;;;;;;;;;;6.10;99.90;;;;;;5088543;28;20085;-59
2022/03/28 04:03:03;;;;;;;;;;;6.20;99.90;;;;;;5084808;28;19977;-60
2022/03/28 04:05:29;;;;;;;;;;;6.10;99.90;;;;;;5093160;28;19931;-59
2022/03/28 04:07:55;;;;;;;;;;;6.10;99.90;;;;;;5095207;28;19931;-59
2022/03/28 04:10:22;;;;;;;;;;;6.00;99.90;;;;;;5094094;28;19924;-60
2022/03/28 04:12:47;;;;;;;;;;;6.10;99.90;;;;;;5094205;28;19924;-60
2022/03/28 04:15:13;;;;;;;;;;;6.00;99.90;;;;;;5094244;28;19920;-60
2022/03/28 04:17:40;;;;;;;;;;;6.00;99.90;;;;;;5093856;28;19977;-60
2022/03/28 04:20:06;;;;;;;;;;;6.00;99.90;;;;;;5092771;28;19930;-60
2022/03/28 04:22:31;;;;;;;;;;;6.10;99.90;;;;;;5094464;28;20313;-60
2022/03/28 04:24:57;;;;;;;;;;;6.10;99.90;;;;;;5093972;28;19986;-60
2022/03/28 04:27:22;;;;;;;;;;;6.10;99.90;;;;;;5092774;28;19974;-59
2022/03/28 04:29:48;;;;;;;;;;;6.20;99.90;;;;;;5092744;28;19924;-60
2022/03/28 04:32:14;;;;;;;;;;;6.20;99.90;;;;;;5093753;28;19928;-60
2022/03/28 04:34:40;;;;;;;;;;;6.10;99.90;;;;;;5093917;28;19924;-60
2022/03/28 04:37:06;;;;;;;;;;;6.10;99.90;;;;;;5103226;28;20278;-59
2022/03/28 04:39:31;;;;;;;;;;;6.10;99.90;;;;;;5093536;28;19924;-60
2022/03/28 04:41:57;;;;;;;;;;;6.10;99.90;;;;;;5093248;28;19975;-60
2022/03/28 04:44:23;;;;;;;;;;;6.10;99.90;;;;;;5094176;28;19925;-60
2022/03/28 04:46:48;;;;;;;;;;;6.10;99.90;;;;;;5092898;28;19927;-59
2022/03/28 04:49:14;;;;;;;;;;;6.20;99.90;;;;;;5093718;28;19935;-60
2022/03/28 04:51:40;;;;;;;;;;;6.30;99.90;;;;;;5094143;28;19919;-59
2022/03/28 04:54:06;;;;;;;;;;;6.20;99.90;;;;;;5093479;28;20358;-60
2022/03/28 04:56:34;;;;;;;;;;;6.20;99.90;;;;;;5093438;28;19924;-60
2022/03/28 04:58:59;;;;;;;;;;;6.20;99.90;;;;;;5094063;28;19920;-60
2022/03/28 05:01:25;;;;;;;;;;;6.20;99.90;;;;;;5078369;28;19928;-61
2022/03/28 05:03:51;;;;;;;;;;;6.10;99.90;;;;;;5074689;28;20337;-59
2022/03/28 05:06:16;;;;;;;;;;;6.10;99.90;;;;;;5092034;28;19924;-59
2022/03/28 05:08:42;;;;;;;;;;;6.20;99.90;;;;;;5092347;28;20386;-59
2022/03/28 05:11:07;;;;;;;;;;;6.20;99.90;;;;;;5091782;28;19924;-59
2022/03/28 05:13:33;;;;;;;;;;;6.20;99.90;;;;;;5092498;28;19943;-59
2022/03/28 05:15:59;;;;;;;;;;;6.20;99.90;;;;;;5092502;28;19955;-59
2022/03/28 05:18:24;;;;;;;;;;;6.30;99.90;;;;;;5093214;28;20370;-59
2022/03/28 05:20:50;;;;;;;;;;;6.30;99.90;;;;;;5092764;28;19981;-59
2022/03/28 05:23:16;;;;;;;;;;;6.30;99.90;;;;;;5091794;28;20352;-59
2022/03/28 05:25:43;;;;;;;;;;;6.30;99.90;;;;;;5091596;28;19925;-59
2022/03/28 05:28:09;;;;;;;;;;;6.40;99.90;;;;;;5081161;28;20057;-59
2022/03/28 05:30:35;;;;;;;;;;;6.40;99.90;;;;;;5089182;28;20385;-59
2022/03/28 05:33:01;;;;;;;;;;;6.40;99.90;;;;;;5093068;28;20014;-59
2022/03/28 05:35:27;;;;;;;;;;;6.30;99.90;;;;;;5085933;28;20057;-59
2022/03/28 05:37:53;;;;;;;;;;;6.30;99.90;;;;;;5107825;28;19975;-59
2022/03/28 05:40:19;;;;;;;;;;;6.30;99.90;;;;;;5101990;28;19969;-59
2022/03/28 05:42:44;;;;;;;;;;;6.30;99.90;;;;;;5092464;28;20293;-59
2022/03/28 05:45:12;;;;;;;;;;;6.30;99.90;;;;;;5093038;28;19924;-61
2022/03/28 05:47:39;;;;;;;;;;;6.20;99.90;;;;;;5091478;28;19924;-59
2022/03/28 05:50:04;;;;;;;;;;;6.10;99.90;;;;;;5092360;28;19978;-59
2022/03/28 05:52:30;;;;;;;;;;;6.10;99.90;;;;;;5093223;28;19967;-59
2022/03/28 05:54:56;;;;;;;;;;;6.10;99.90;;;;;;5093011;28;19931;-59
2022/03/28 05:57:21;;;;;;;;;;;6.00;99.90;;;;;;5092433;28;19977;-58
2022/03/28 05:59:47;;;;;;;;;;;6.10;99.90;;;;;;5092974;28;19931;-59
2022/03/28 06:02:13;;;;;;;;;;;6.10;99.90;;;;;;5090876;28;19934;-59
2022/03/28 06:04:38;;;;;;;;;;;6.10;99.90;;;;;;5125161;28;19931;-59
2022/03/28 06:07:04;;;;;;;;;;;6.10;99.90;;;;;;5091390;28;19928;-59
2022/03/28 06:09:30;;;;;;;;;;;6.10;99.90;;;;;;5091728;28;20025;-59
2022/03/28 06:11:55;;;;;;;;;;;6.10;99.90;;;;;;5091675;28;19966;-59
2022/03/28 06:14:21;;;;;;;;;;;6.20;99.90;;;;;;5074759;28;19965;-59
2022/03/28 06:16:47;;;;;;;;;;;6.20;99.90;;;;;;5091686;28;20018;-58
2022/03/28 06:19:12;;;;;;;;;;;6.20;99.90;;;;;;5093219;28;19931;-58
2022/03/28 06:21:38;;;;;;;;;;;6.20;99.90;;;;;;5091281;28;19924;-59
2022/03/28 06:24:04;;;;;;;;;;;6.20;99.90;;;;;;5091500;28;20332;-59
2022/03/28 06:26:29;;;;;;;;;;;6.20;99.90;;;;;;5091385;28;19932;-58
2022/03/28 06:28:55;;;;;;;;;;;6.20;99.90;;;;;;5077784;28;19928;-58
2022/03/28 06:31:21;;;;;;;;;;;6.20;99.90;;;;;;5090806;28;20442;-59
2022/03/28 06:33:47;;;;;;;;;;;6.30;99.90;;;;;;5092200;28;20285;-59
2022/03/28 06:36:13;;;;;;;;;;;6.20;99.90;;;;;;5088104;28;20320;-59
2022/03/28 06:38:38;;;;;;;;;;;6.20;99.90;;;;;;5113278;28;19927;-58
2022/03/28 06:41:04;;;;;;;;;;;6.30;99.90;;;;;;5115085;28;19953;-58
2022/03/28 06:43:30;;;;;;;;;;;6.30;99.90;;;;;;5096575;28;19976;-59
2022/03/28 06:45:56;;;;;;;;;;;6.30;99.90;;;;;;5095996;28;19920;-59
2022/03/28 06:48:22;;;;;;;;;;;6.40;99.90;;;;;;5096116;28;19931;-59
2022/03/28 06:50:48;;;;;;;;;;;6.40;99.90;;;;;;5096185;28;19924;-60
2022/03/28 06:53:13;;;;;;;;;;;6.40;99.90;;;;;;5095819;28;19924;-59
2022/03/28 06:55:39;;;;;;;;;;;6.50;99.90;;;;;;5095759;28;19924;-59
2022/03/28 06:58:05;;;;;;;;;;;6.50;99.90;;;;;;5095959;28;20285;-59
2022/03/28 07:00:31;;;;;;;;;;;6.50;99.90;;;;;;5087490;28;19920;-59
2022/03/28 07:02:57;;;;;;;;;;;6.60;99.90;;;;;;5087022;28;19931;-59
2022/03/28 07:05:22;;;;;;;;;;;6.60;99.90;;;;;;5096196;28;20019;-59
2022/03/28 07:07:48;;;;;;;;;;;6.70;99.90;;;;;;5093710;28;20301;-59
2022/03/28 07:10:15;;;;;;;;;;;6.80;99.90;;;;;;5095403;28;20416;-59
2022/03/28 07:12:41;;;;;;;;;;;6.90;99.90;;;;;;5095337;28;19978;-59
2022/03/28 07:15:07;;;;;;;;;;;6.90;99.90;;;;;;5096031;28;19959;-59
2022/03/28 07:17:54;;;;;;;;;;;6.90;99.90;;;;;;5095201;28;19928;-59
2022/03/28 07:20:21;;;;;;;;;;;7.00;99.90;;;;;;5110837;28;19924;-59
2022/03/28 07:22:47;;;;;;;;;;;7.00;99.90;;;;;;5095901;28;19932;-59
2022/03/28 07:25:13;;;;;;;;;;;7.10;99.90;;;;;;5094783;28;20104;-59
2022/03/28 07:27:39;;;;;;;;;;;7.10;99.90;;;;;;5089401;28;19927;-58
2022/03/28 07:30:05;;;;;;;;;;;7.20;99.90;;;;;;5095326;28;19935;-59
2022/03/28 07:32:31;;;;;;;;;;;7.20;99.90;;;;;;5094720;28;19933;-59
2022/03/28 07:34:57;;;;;;;;;;;7.30;99.90;;;;;;5087281;28;19924;-59
2022/03/28 07:37:23;;;;;;;;;;;7.40;99.90;;;;;;5106805;28;20022;-59
2022/03/28 07:39:48;;;;;;;;;;;7.40;99.90;;;;;;5095400;28;19993;-59
2022/03/28 07:42:14;;;;;;;;;;;7.40;99.90;;;;;;5092834;28;19924;-59
2022/03/28 07:44:41;;;;;;;;;;;7.50;99.90;;;;;;5094444;28;20069;-59
2022/03/28 07:47:08;;;;;;;;;;;7.50;99.90;;;;;;5094789;28;19925;-59
2022/03/28 07:49:35;;;;;;;;;;;7.60;99.90;;;;;;5094485;28;20373;-59
2022/03/28 07:52:01;;;;;;;;;;;7.70;99.90;;;;;;5093700;28;19928;-59
2022/03/28 07:54:27;;;;;;;;;;;7.70;99.90;;;;;;5093925;28;20010;-59
2022/03/28 07:56:53;;;;;;;;;;;7.80;99.90;;;;;;5094002;28;19924;-59
2022/03/28 07:59:18;;;;;;;;;;;7.80;99.90;;;;;;5094813;28;19978;-59
2022/03/28 08:01:44;;;;;;;;;;;7.80;99.90;;;;;;5094014;28;19934;-59
2022/03/28 08:04:09;;;;;;;;;;;7.80;99.90;;;;;;5091300;28;19931;-59
2022/03/28 08:06:35;;;;;;;;;;;7.80;99.90;;;;;;5083315;28;19955;-58
2022/03/28 08:09:01;;;;;;;;;;;7.90;99.90;;;;;;5083648;28;20365;-59
2022/03/28 08:11:26;;;;;;;;;;;8.00;99.90;;;;;;5084830;28;19924;-59
2022/03/28 08:13:52;;;;;;;;;;;7.90;99.90;;;;;;5083918;28;19928;-59
2022/03/28 08:16:18;;;;;;;;;;;7.90;99.90;;;;;;5085731;28;19940;-59
2022/03/28 08:18:43;;;;;;;;;;;7.90;99.90;;;;;;5086081;28;19981;-59
2022/03/28 08:21:09;;;;;;;;;;;7.90;99.90;;;;;;5094335;28;19977;-59
2022/03/28 08:23:35;;;;;;;;;;;7.90;99.90;;;;;;5093191;28;19925;-59
2022/03/28 08:26:01;;;;;;;;;;;7.90;99.90;;;;;;5094817;28;20386;-59
2022/03/28 08:28:27;;;;;;;;;;;7.90;99.90;;;;;;5086815;28;20014;-59
2022/03/28 08:30:53;;;;;;;;;;;8.00;99.90;;;;;;5083654;28;19924;-59
2022/03/28 08:33:18;;;;;;;;;;;8.00;99.90;;;;;;5082184;28;19920;-59
2022/03/28 08:35:44;;;;;;;;;;;8.10;99.90;;;;;;5082726;28;20022;-59
2022/03/28 08:38:10;;;;;;;;;;;8.20;99.90;;;;;;5109650;28;19954;-59
2022/03/28 08:40:36;;;;;;;;;;;8.20;99.90;;;;;;5113434;28;19928;-59
2022/03/28 08:43:04;;;;;;;;;;;8.20;99.90;;;;;;5114586;28;19923;-59
2022/03/28 08:45:30;;;;;;;;;;;8.20;99.90;;;;;;5084324;28;19921;-59
2022/03/28 08:47:56;;;;;;;;;;;8.30;99.90;;;;;;5083442;28;19931;-59
2022/03/28 08:50:22;;;;;;;;;;;8.30;99.90;;;;;;5084801;28;20343;-59
2022/03/28 08:52:47;;;;;;;;;;;8.40;99.90;;;;;;5085442;28;19965;-59
2022/03/28 08:55:14;;;;;;;;;;;8.50;99.90;;;;;;5094002;28;20030;-59
2022/03/28 08:57:40;;;;;;;;;;;8.40;99.90;;;;;;5094125;28;19920;-59
2022/03/28 09:00:09;;;;;;;;;;;8.40;99.90;;;;;;5092716;28;19928;-59
2022/03/28 09:02:42;;;;;;;;;;;8.40;99.90;;;;;;5093306;28;19975;-59
2022/03/28 09:05:09;;;;;;;;;;;8.40;99.90;;;;;;5093608;28;20378;-59
2022/03/28 09:07:35;;;;;;;;;;;8.40;99.90;;;;;;5089194;28;20383;-59
2022/03/28 09:10:02;;;;;;;;;;;8.50;99.90;;;;;;5079241;28;19931;-59
2022/03/28 09:12:28;;;;;;;;;;;8.50;99.90;;;;;;5085164;28;20011;-58
2022/03/28 09:14:56;;;;;;;;;;;8.40;99.90;;;;;;5078720;28;20412;-59
2022/03/28 09:17:21;;;;;;;;;;;8.40;99.90;;;;;;5077036;28;19928;-59
2022/03/28 09:19:47;;;;;;;;;;;8.50;99.90;;;;;;5092447;28;20270;-59
2022/03/28 09:22:14;;;;;;;;;;;8.50;99.90;;;;;;5092620;28;19998;-59
2022/03/28 09:24:41;;;;;;;;;;;8.60;99.90;;;;;;5093761;28;19938;-59
2022/03/28 09:27:09;;;;;;;;;;;8.60;99.90;;;;;;5091666;28;19978;-59
2022/03/28 09:29:50;;;;;;;;;;;8.70;99.90;;;;;;5080040;28;19928;-59
2022/03/28 09:32:21;;;;;;;;;;;8.80;99.90;;;;;;5091957;28;20267;-59
2022/03/28 09:35:00;;;;;;;;;;;8.90;99.90;;;;;;5088393;28;19924;-59
2022/03/28 09:37:26;;;;;;;;;;;8.90;99.90;;;;;;5105150;28;20399;-59
2022/03/28 09:39:51;;;;;;;;;;;8.90;99.90;;;;;;5096460;28;19989;-59
2022/03/28 09:42:17;;;;;;;;;;;9.00;99.90;;;;;;5082447;28;19966;-60
2022/03/28 09:44:45;;;;;;;;;;;9.00;99.90;;;;;;5073483;28;19959;-59
2022/03/28 09:47:12;;;;;;;;;;;9.10;99.90;;;;;;5082047;28;20020;-60
2022/03/28 09:49:38;;;;;;;;;;;9.00;99.90;;;;;;5092150;28;20029;-60
2022/03/28 09:52:06;;;;;;;;;;;9.00;99.90;;;;;;5074566;28;20015;-60
2022/03/28 09:54:42;;;;;;;;;;;9.10;99.90;;;;;;5071111;28;20003;-60
2022/03/28 09:57:09;;;;;;;;;;;9.20;99.90;;;;;;5085454;28;19924;-60
2022/03/28 09:59:39;;;;;;;;;;;9.30;99.90;;;;;;5092186;28;19932;-60
2022/03/28 10:02:20;;;;;;;;;;;9.30;99.90;;;;;;5090645;28;20015;-59
2022/03/28 10:04:46;;;;;;;;;;;9.40;99.90;;;;;;5074349;28;20020;-60
2022/03/28 10:07:12;;;;;;;;;;;9.50;99.90;;;;;;5091982;28;20385;-60
2022/03/28 10:09:39;;;;;;;;;;;9.50;99.90;;;;;;5092208;28;19982;-60
2022/03/28 10:12:05;;;;;;;;;;;9.60;99.90;;;;;;5093037;28;19939;-60
2022/03/28 10:14:32;;;;;;;;;;;9.60;99.90;;;;;;5092552;28;19931;-59
2022/03/28 10:17:01;;;;;;;;;;;9.60;99.90;;;;;;5094508;28;19947;-60
2022/03/28 10:19:27;;;;;;;;;;;9.60;99.90;;;;;;5095544;28;20374;-60
2022/03/28 10:21:54;;;;;;;;;;;9.50;99.90;;;;;;5083576;28;19970;-60
2022/03/28 10:24:22;;;;;;;;;;;9.40;99.90;;;;;;5093788;28;19931;-60
2022/03/28 10:26:52;;;;;;;;;;;9.40;99.90;;;;;;5096891;28;19923;-60
2022/03/28 10:29:21;;;;;;;;;;;9.50;99.90;;;;;;5081391;28;19935;-60
2022/03/28 10:31:56;;;;;;;;;;;9.70;99.90;;;;;;5095609;28;19920;-60
2022/03/28 10:34:41;;;;;;;;;;;9.70;99.90;;;;;;5096195;28;20336;-60
2022/03/28 10:37:23;;;;;;;;;;;9.80;99.90;;;;;;5105075;28;19923;-60
2022/03/28 10:39:49;;;;;;;;;;;9.80;99.90;;;;;;5094788;28;20398;-60
2022/03/28 10:42:24;;;;;;;;;;;9.80;99.90;;;;;;5089503;28;19924;-60
2022/03/28 10:45:00;;;;;;;;;;;9.80;99.90;;;;;;5086462;28;19933;-60
2022/03/28 10:47:42;;;;;;;;;;;9.80;99.90;;;;;;5085334;28;19939;-60
2022/03/28 10:50:09;;;;;;;;;;;9.80;99.90;;;;;;5084257;28;19966;-60
2022/03/28 10:52:35;;;;;;;;;;;9.70;99.90;;;;;;5073415;28;19930;-59
2022/03/28 10:55:08;;;;;;;;;;;9.70;99.90;;;;;;5076145;28;20003;-60
2022/03/28 10:57:34;;;;;;;;;;;9.80;99.90;;;;;;5082483;28;19962;-60
2022/03/28 11:00:02;;;;;;;;;;;9.90;99.90;;;;;;5089237;28;19924;-60
2022/03/28 11:02:28;;;;;;;;;;;10.00;99.90;;;;;;5084844;28;20310;-60
2022/03/28 11:04:54;;;;;;;;;;;10.00;99.90;;;;;;5084906;28;20310;-60
2022/03/28 11:07:21;;;;;;;;;;;10.00;99.90;;;;;;5085915;28;20003;-60
2022/03/28 11:09:47;;;;;;;;;;;9.70;99.90;;;;;;5079603;28;19956;-60
2022/03/28 11:12:15;;;;;;;;;;;9.70;99.90;;;;;;5075277;28;19971;-60
2022/03/28 11:14:43;;;;;;;;;;;9.70;99.90;;;;;;5075095;28;19932;-62
2022/03/28 11:17:16;;;;;;;;;;;9.80;99.90;;;;;;5094649;28;19970;-60
2022/03/28 11:19:53;;;;;;;;;;;9.90;99.90;;;;;;5095124;28;19974;-60
2022/03/28 11:22:37;;;;;;;;;;;10.20;99.90;;;;;;5095254;28;19946;-60
2022/03/28 11:25:03;;;;;;;;;;;10.50;99.90;;;;;;5076038;28;19931;-60
2022/03/28 11:27:29;;;;;;;;;;;10.90;99.90;;;;;;5089245;28;19928;-60
2022/03/28 11:30:06;;;;;;;;;;;11.20;99.90;;;;;;5086011;28;20302;-60
2022/03/28 11:32:32;;;;;;;;;;;11.40;99.90;;;;;;5095934;28;19971;-60
2022/03/28 11:34:59;;;;;;;;;;;11.70;99.90;;;;;;5088164;28;19925;-60
2022/03/28 11:37:26;;;;;;;;;;;11.50;99.90;;;;;;5105593;28;20293;-60
2022/03/28 11:40:05;;;;;;;;;;;11.40;99.90;;;;;;5114661;28;19923;-60
2022/03/28 11:42:31;;;;;;;;;;;11.10;99.90;;;;;;5106824;28;19931;-60
2022/03/28 11:45:01;;;;;;;;;;;11.00;99.90;;;;;;5095597;28;20026;-60
2022/03/28 11:47:27;;;;;;;;;;;10.80;99.90;;;;;;5093255;28;19920;-60
2022/03/28 11:50:00;;;;;;;;;;;11.00;99.90;;;;;;5094745;28;20011;-60
2022/03/28 11:52:27;;;;;;;;;;;11.00;99.90;;;;;;5092316;28;19972;-59
2022/03/28 11:54:55;;;;;;;;;;;11.00;99.90;;;;;;5085082;28;19925;-60
2022/03/28 12:00:14;;;;;;;;;;;11.10;99.90;;;;;;5089850;28;19964;-60
2022/03/28 12:02:51;;;;;;;;;;;10.90;99.90;;;;;;5079666;28;19971;-60
2022/03/28 12:05:24;;;;;;;;;;;10.80;99.90;;;;;;5081685;28;19954;-60
2022/03/28 12:07:50;;;;;;;;;;;10.60;99.90;;;;;;5081998;28;19999;-60
2022/03/28 12:10:16;;;;;;;;;;;10.50;99.90;;;;;;5082947;28;20318;-60
2022/03/28 12:12:42;;;;;;;;;;;10.40;99.90;;;;;;5084546;28;20255;-60
2022/03/28 12:15:09;;;;;;;;;;;10.40;99.90;;;;;;5083475;28;19963;-60
2022/03/28 12:17:35;;;;;;;;;;;10.40;99.90;;;;;;5094700;28;20029;-60
2022/03/28 12:20:05;;;;;;;;;;;10.40;99.90;;;;;;5094245;28;20410;-60
2022/03/28 12:22:42;;;;;;;;;;;10.30;99.90;;;;;;5093694;28;19928;-59
2022/03/28 12:25:08;;;;;;;;;;;10.20;99.90;;;;;;5094871;28;19924;-60
2022/03/28 12:27:34;;;;;;;;;;;10.20;99.90;;;;;;5093505;28;19928;-60
2022/03/28 12:30:00;;;;;;;;;;;10.30;99.90;;;;;;5082541;28;19924;-60
2022/03/28 12:32:26;;;;;;;;;;;10.20;99.90;;;;;;5072756;28;19924;-60
2022/03/28 12:34:51;;;;;;;;;;;10.20;99.90;;;;;;5078341;28;19993;-60
2022/03/28 12:37:17;;;;;;;;;;;10.10;99.90;;;;;;5102319;28;19924;-60
2022/03/28 12:39:43;;;;;;;;;;;10.00;99.90;;;;;;5113579;28;19946;-60
2022/03/28 12:42:23;;;;;;;;;;;9.90;99.90;;;;;;5114087;28;19949;-60
2022/03/28 12:44:48;;;;;;;;;;;9.90;99.90;;;;;;5102573;28;19924;-60
2022/03/28 12:47:15;;;;;;;;;;;10.00;99.90;;;;;;5094250;28;20014;-60
2022/03/28 12:49:43;;;;;;;;;;;10.00;99.90;;;;;;5086989;28;19947;-60
2022/03/28 12:52:10;;;;;;;;;;;10.10;99.90;;;;;;5072862;28;19924;-60
2022/03/28 12:54:36;;;;;;;;;;;10.20;99.90;;;;;;5081698;28;19963;-60
2022/03/28 12:57:02;;;;;;;;;;;10.20;99.90;;;;;;5073238;28;19928;-60
2022/03/28 12:59:29;;;;;;;;;;;10.30;99.90;;;;;;5086316;28;19992;-60
2022/03/28 13:02:09;;;;;;;;;;;10.40;99.90;;;;;;5079898;28;19932;-60
2022/03/28 13:04:41;;;;;;;;;;;10.50;99.90;;;;;;5092486;28;20014;-60
2022/03/28 13:07:07;;;;;;;;;;;10.50;99.90;;;;;;5091167;28;19921;-62
2022/03/28 13:09:32;;;;;;;;;;;10.60;99.90;;;;;;5092515;28;19980;-60
2022/03/28 13:12:08;;;;;;;;;;;10.60;99.90;;;;;;5090015;28;20332;-60
2022/03/28 13:14:34;;;;;;;;;;;10.50;99.90;;;;;;5071873;28;20167;-60
2022/03/28 13:17:03;;;;;;;;;;;10.50;99.90;;;;;;5088412;28;20023;-60
2022/03/28 13:19:29;;;;;;;;;;;10.50;99.90;;;;;;5083139;28;19924;-60
2022/03/28 13:21:57;;;;;;;;;;;10.50;99.90;;;;;;5083256;28;19931;-60
2022/03/28 13:24:26;;;;;;;;;;;10.60;99.90;;;;;;5093227;28;19978;-60
2022/03/28 13:28:01;;;;;;;;;;;10.60;99.90;;;;;;5092048;28;20373;-60
2022/03/28 13:29:39;;;;;;;;;;;10.70;99.90;;;;;;5082811;28;19924;-60
2022/03/28 13:32:05;;;;;;;;;;;10.70;99.90;;;;;;5073255;28;19974;-60
2022/03/28 13:34:31;;;;;;;;;;;10.60;99.90;;;;;;5087826;28;19928;-60
2022/03/28 13:36:58;;;;;;;;;;;10.60;99.90;;;;;;5096649;28;19978;-60
2022/03/28 13:39:23;;;;;;;;;;;10.50;99.90;;;;;;5093378;28;19928;-60
2022/03/28 13:41:49;;;;;;;;;;;10.50;99.90;;;;;;5091459;28;19993;-60
2022/03/28 13:44:15;;;;;;;;;;;10.40;99.90;;;;;;5093171;28;19928;-60
2022/03/28 13:46:40;;;;;;;;;;;10.50;99.90;;;;;;5092161;28;19924;-60
2022/03/28 13:49:06;;;;;;;;;;;10.60;99.90;;;;;;5091822;28;19924;-60
2022/03/28 13:51:32;;;;;;;;;;;10.60;99.90;;;;;;5091194;28;20484;-60
2022/03/28 13:53:59;;;;;;;;;;;10.70;99.90;;;;;;5092496;28;19920;-60
2022/03/28 13:56:25;;;;;;;;;;;10.70;99.90;;;;;;5091945;28;19928;-60
2022/03/28 13:58:51;;;;;;;;;;;10.80;99.90;;;;;;5081565;28;19986;-60
2022/03/28 14:01:16;;;;;;;;;;;10.90;99.90;;;;;;5082505;28;20394;-60
2022/03/28 14:03:42;;;;;;;;;;;10.90;99.90;;;;;;5082718;28;19924;-60
2022/03/28 14:06:08;;;;;;;;;;;10.90;99.90;;;;;;5089911;28;19920;-60
2022/03/28 14:08:36;;;;;;;;;;;11.00;99.90;;;;;;5091992;28;20011;-60
2022/03/28 14:11:03;;;;;;;;;;;11.00;99.90;;;;;;5090931;28;20496;-60
2022/03/28 14:13:28;;;;;;;;;;;11.00;99.90;;;;;;5092229;28;20324;-60
2022/03/28 14:15:54;;;;;;;;;;;10.90;99.90;;;;;;5092359;28;20015;-60
2022/03/28 14:18:22;;;;;;;;;;;10.80;99.90;;;;;;5086019;28;19924;-60
2022/03/28 14:20:48;;;;;;;;;;;10.90;99.90;;;;;;5091827;28;19931;-60
2022/03/28 14:23:13;;;;;;;;;;;10.90;99.90;;;;;;5091890;28;20319;-60
2022/03/28 14:25:39;;;;;;;;;;;10.90;99.90;;;;;;5092585;28;19971;-60
2022/03/28 14:28:05;;;;;;;;;;;10.90;99.90;;;;;;5086898;28;20003;-60
2022/03/28 14:30:31;;;;;;;;;;;11.00;99.90;;;;;;5081958;28;20387;-60